createdAt,value
2023-06-19T00:02:13.566Z,7.53
2023-06-19T00:04:40.280Z,7.68
2023-06-19T00:07:07.043Z,7.80
2023-06-19T00:09:33.913Z,7.37
2023-06-19T00:12:00.624Z,7.20
2023-06-19T00:14:27.333Z,7.80
2023-06-19T00:16:55.561Z,7.70
2023-06-19T00:19:22.155Z,7.60
2023-06-19T00:21:48.809Z,7.30
2023-06-19T00:24:15.517Z,7.97
2023-06-19T00:26:42.222Z,8.02
2023-06-19T00:29:08.886Z,7.60
2023-06-19T00:31:35.543Z,8.10
2023-06-19T00:34:03.603Z,7.97
2023-06-19T00:36:30.303Z,7.68
2023-06-19T00:38:56.945Z,7.82
2023-06-19T00:41:23.632Z,7.88
2023-06-19T00:43:50.296Z,7.45
2023-06-19T00:46:17.081Z,6.90
2023-06-19T00:48:43.997Z,7.50
2023-06-19T00:51:12.083Z,7.57
2023-06-19T00:53:39.169Z,8.32
2023-06-19T00:56:06.635Z,7.82
2023-06-19T00:58:33.612Z,7.30
2023-06-19T01:01:08.605Z,7.85
2023-06-19T01:03:36.517Z,7.70
2023-06-19T01:06:06.678Z,7.28
2023-06-19T01:08:44.488Z,7.78
2023-06-19T01:11:26.065Z,8.10
2023-06-19T01:13:57.149Z,7.07
2023-06-19T01:16:24.486Z,7.68
2023-06-19T01:18:51.532Z,7.60
2023-06-19T01:21:19.733Z,7.93
2023-06-19T01:23:48.123Z,8.07
2023-06-19T01:26:15.973Z,8.05
2023-06-19T01:28:44.732Z,7.82
2023-06-19T01:31:14.220Z,7.50
2023-06-19T01:33:43.691Z,8.18
2023-06-19T01:36:11.596Z,7.53
2023-06-19T01:38:39.782Z,7.32
2023-06-19T01:41:08.967Z,7.35
2023-06-19T01:43:36.431Z,7.82
2023-06-19T01:46:03.383Z,7.80
2023-06-19T01:48:30.185Z,7.53
2023-06-19T01:50:56.886Z,7.57
2023-06-19T01:53:23.543Z,7.57
2023-06-19T01:55:50.617Z,7.50
2023-06-19T01:58:19.858Z,7.85
2023-06-19T02:00:46.522Z,7.40
2023-06-19T02:03:13.254Z,7.47
2023-06-19T02:05:39.996Z,7.93
2023-06-19T02:08:06.844Z,7.65
2023-06-19T02:10:33.584Z,7.32
2023-06-19T02:13:00.255Z,7.57
2023-06-19T02:15:28.335Z,7.97
2023-06-19T02:17:56.418Z,7.35
2023-06-19T02:20:23.959Z,8.25
2023-06-19T02:22:51.534Z,7.75
2023-06-19T02:25:18.648Z,8.37
2023-06-19T02:27:45.586Z,8.20
2023-06-19T02:30:12.816Z,7.60
2023-06-19T02:32:40.917Z,7.18
2023-06-19T02:35:11.708Z,7.85
2023-06-19T02:37:38.666Z,8.17
2023-06-19T02:40:06.017Z,8.05
2023-06-19T02:42:32.688Z,8.10
2023-06-19T02:44:59.325Z,7.65
2023-06-19T02:47:26.132Z,8.02
2023-06-19T02:49:54.215Z,7.50
2023-06-19T02:52:20.902Z,7.57
2023-06-19T02:54:47.642Z,7.72
2023-06-19T02:57:14.276Z,8.48
2023-06-19T02:59:40.959Z,7.82
2023-06-19T03:02:07.629Z,8.13
2023-06-19T03:04:34.319Z,8.32
2023-06-19T03:07:02.439Z,8.60
2023-06-19T03:09:29.100Z,7.40
2023-06-19T03:11:55.797Z,8.20
2023-06-19T03:14:22.441Z,8.07
2023-06-19T03:16:49.179Z,7.90
2023-06-19T03:19:15.912Z,8.50
2023-06-19T03:21:42.568Z,8.65
2023-06-19T03:24:10.608Z,7.78
2023-06-19T03:26:37.407Z,7.70
2023-06-19T03:29:04.128Z,7.88
2023-06-19T03:31:30.833Z,7.75
2023-06-19T03:33:57.525Z,7.80
2023-06-19T03:36:24.175Z,7.72
2023-06-19T03:38:50.853Z,7.97
2023-06-19T03:41:18.866Z,8.05
2023-06-19T03:43:45.524Z,8.32
2023-06-19T03:46:12.259Z,8.55
2023-06-19T03:48:39.186Z,8.60
2023-06-19T03:51:05.795Z,8.20
2023-06-19T03:53:32.473Z,8.13
2023-06-19T03:55:59.072Z,8.65
2023-06-19T03:58:27.140Z,8.10
2023-06-19T04:00:53.876Z,8.20
2023-06-19T04:03:20.926Z,7.77
2023-06-19T04:05:47.666Z,9.38
2023-06-19T04:08:14.313Z,8.02
2023-06-19T04:10:40.965Z,7.85
2023-06-19T04:13:07.652Z,8.95
2023-06-19T04:15:35.870Z,8.77
2023-06-19T04:18:02.842Z,8.93
2023-06-19T04:20:29.565Z,8.27
2023-06-19T04:22:56.262Z,8.27
2023-06-19T04:25:23.323Z,8.52
2023-06-19T04:27:49.971Z,7.93
2023-06-19T04:30:16.694Z,8.10
2023-06-19T04:32:44.919Z,7.55
2023-06-19T04:35:11.758Z,8.10
2023-06-19T04:37:38.452Z,8.98
2023-06-19T04:40:06.341Z,8.37
2023-06-19T04:42:32.995Z,8.50
2023-06-19T04:44:59.770Z,9.05
2023-06-19T04:47:33.418Z,8.65
2023-06-19T04:50:05.754Z,8.68
2023-06-19T04:52:32.423Z,8.57
2023-06-19T04:54:59.076Z,7.63
2023-06-19T04:57:25.718Z,7.85
2023-06-19T05:02:32.930Z,7.30
2023-06-19T05:04:59.561Z,7.23
2023-06-19T05:07:27.566Z,7.38
2023-06-19T05:09:54.235Z,7.78
2023-06-19T05:12:20.928Z,6.93
2023-06-19T05:14:47.577Z,7.40
2023-06-19T05:17:14.649Z,7.33
2023-06-19T05:19:41.326Z,7.28
2023-06-19T05:22:08.016Z,7.32
2023-06-19T05:24:36.097Z,7.40
2023-06-19T05:27:02.801Z,7.40
2023-06-19T05:29:29.494Z,7.27
2023-06-19T05:31:56.202Z,7.25
2023-06-19T05:34:23.137Z,7.78
2023-06-19T05:36:49.886Z,7.80
2023-06-19T05:39:16.582Z,8.43
2023-06-19T05:41:44.692Z,7.87
2023-06-19T05:44:11.360Z,7.82
2023-06-19T05:46:38.430Z,8.32
2023-06-19T05:49:05.080Z,8.07
2023-06-19T05:51:31.784Z,8.70
2023-06-19T05:53:58.504Z,8.43
2023-06-19T05:56:25.159Z,8.65
2023-06-19T05:58:53.429Z,8.40
2023-06-19T06:01:20.277Z,8.10
2023-06-19T06:03:47.043Z,8.63
2023-06-19T06:06:13.700Z,7.97
2023-06-19T06:08:40.421Z,8.07
2023-06-19T06:11:07.065Z,8.48
2023-06-19T06:13:33.826Z,8.27
2023-06-19T06:16:01.859Z,8.50
2023-06-19T06:18:28.535Z,8.10
2023-06-19T06:20:55.243Z,8.10
2023-06-19T06:23:21.905Z,7.55
2023-06-19T06:25:48.554Z,8.07
2023-06-19T06:28:15.213Z,7.43
2023-06-19T06:30:41.911Z,7.93
2023-06-19T06:33:10.152Z,7.70
2023-06-19T06:35:36.914Z,7.93
2023-06-19T06:38:03.580Z,7.70
2023-06-19T06:40:30.254Z,8.07
2023-06-19T06:45:37.390Z,7.63
2023-06-19T06:48:04.608Z,8.07
2023-06-19T06:50:32.765Z,7.85
2023-06-19T06:52:59.466Z,7.88
2023-06-19T06:55:26.144Z,7.73
2023-06-19T06:57:52.876Z,7.35
2023-06-19T07:00:19.909Z,7.82
2023-06-19T07:02:46.721Z,7.70
2023-06-19T07:05:13.437Z,7.35
2023-06-19T07:07:41.471Z,7.90
2023-06-19T07:10:10.099Z,7.43
2023-06-19T07:12:36.719Z,7.72
2023-06-19T07:15:03.646Z,7.90
2023-06-19T07:17:30.376Z,7.80
2023-06-19T07:19:57.042Z,7.73
2023-06-19T07:22:23.692Z,7.40
2023-06-19T07:24:51.740Z,7.78
2023-06-19T07:27:18.498Z,7.28
2023-06-19T07:29:45.609Z,7.75
2023-06-19T07:32:12.304Z,6.70
2023-06-19T07:34:39.636Z,6.82
2023-06-19T07:37:06.590Z,7.57
2023-06-19T07:39:33.275Z,7.38
2023-06-19T07:42:01.414Z,7.25
2023-06-19T07:44:28.082Z,7.67
2023-06-19T07:46:54.772Z,7.30
2023-06-19T07:49:21.473Z,7.05
2023-06-19T07:51:48.145Z,7.70
2023-06-19T07:54:14.777Z,6.82
2023-06-19T07:56:41.445Z,6.90
2023-06-19T07:59:09.427Z,6.90
2023-06-19T08:01:36.066Z,6.47
2023-06-19T08:04:02.777Z,6.53
2023-06-19T08:06:29.460Z,6.55
2023-06-19T08:08:56.160Z,6.10
2023-06-19T08:11:22.809Z,6.68
2023-06-19T08:13:49.613Z,6.68
2023-06-19T08:16:17.697Z,6.45
2023-06-19T08:18:45.006Z,6.65
2023-06-19T08:21:11.708Z,6.67
2023-06-19T08:23:38.455Z,6.53
2023-06-19T08:26:05.128Z,7.03
2023-06-19T08:28:32.126Z,6.80
2023-06-19T08:30:58.802Z,6.72
2023-06-19T08:33:27.023Z,6.20
2023-06-19T08:35:53.708Z,6.07
2023-06-19T08:38:20.441Z,6.65
2023-06-19T08:40:47.168Z,5.90
2023-06-19T08:43:13.974Z,5.95
2023-06-19T08:45:41.111Z,5.90
2023-06-19T08:48:07.871Z,5.70
2023-06-19T08:50:35.960Z,6.65
2023-06-19T08:53:02.640Z,5.47
2023-06-19T08:55:29.312Z,5.95
2023-06-19T08:57:55.959Z,5.73
2023-06-19T09:00:27.590Z,5.85
2023-06-19T09:03:11.885Z,5.80
2023-06-19T09:05:44.137Z,5.97
2023-06-19T09:08:14.634Z,5.68
2023-06-19T09:10:41.310Z,5.77
2023-06-19T09:13:07.973Z,5.57
2023-06-19T09:15:36.959Z,5.85
2023-06-19T09:18:04.890Z,5.68
2023-06-19T09:20:32.034Z,5.45
2023-06-19T09:23:00.411Z,5.83
2023-06-19T09:25:27.200Z,5.95
2023-06-19T09:27:54.122Z,5.85
2023-06-19T09:30:21.553Z,5.90
2023-06-19T09:32:48.443Z,5.20
2023-06-19T09:35:15.373Z,5.73
2023-06-19T09:37:42.255Z,5.93
2023-06-19T09:40:10.909Z,5.50
2023-06-19T09:42:39.592Z,5.68
2023-06-19T09:45:08.528Z,5.65
2023-06-19T09:47:37.892Z,5.37
2023-06-19T09:50:06.703Z,5.55
2023-06-19T09:52:34.281Z,5.50
2023-06-19T09:55:03.579Z,5.25
2023-06-19T09:57:32.660Z,5.45
2023-06-19T10:00:02.270Z,5.03
2023-06-19T10:02:29.566Z,5.20
2023-06-19T10:04:57.267Z,5.20
2023-06-19T10:07:33.117Z,5.40
2023-06-19T10:10:00.539Z,4.97
2023-06-19T10:12:42.374Z,5.07
2023-06-19T10:15:15.811Z,5.13
2023-06-19T10:17:48.152Z,5.53
2023-06-19T10:20:24.490Z,5.57
2023-06-19T10:22:58.757Z,5.20
2023-06-19T10:25:28.330Z,5.57
2023-06-19T10:27:56.388Z,5.28
2023-06-19T10:30:23.103Z,5.18
2023-06-19T10:32:50.322Z,4.80
2023-06-19T10:35:18.911Z,4.60
2023-06-19T10:37:45.646Z,4.10
2023-06-19T10:40:12.965Z,4.20
2023-06-19T10:42:39.827Z,4.18
2023-06-19T10:45:10.112Z,4.45
2023-06-19T10:47:38.629Z,4.60
2023-06-19T10:50:06.637Z,4.30
2023-06-19T10:52:34.011Z,3.95
2023-06-19T10:55:00.710Z,4.75
2023-06-19T10:57:28.997Z,4.63
2023-06-19T10:59:55.690Z,4.28
2023-06-19T11:02:24.208Z,4.20
2023-06-19T11:04:53.331Z,4.40
2023-06-19T11:07:20.104Z,4.30
2023-06-19T11:09:46.789Z,4.47
2023-06-19T11:12:19.377Z,4.30
2023-06-19T11:14:46.061Z,4.20
2023-06-19T11:17:12.944Z,4.40
2023-06-19T11:19:41.172Z,4.95
2023-06-19T11:22:07.858Z,4.43
2023-06-19T11:24:34.641Z,4.40
2023-06-19T11:27:01.436Z,4.27
2023-06-19T11:29:31.095Z,4.43
2023-06-19T11:32:06.782Z,4.72
2023-06-19T11:34:34.328Z,4.65
2023-06-19T11:37:02.413Z,4.97
2023-06-19T11:39:29.179Z,4.57
2023-06-19T11:41:55.986Z,4.22
2023-06-19T11:44:22.745Z,4.93
2023-06-19T11:46:49.433Z,4.32
2023-06-19T11:49:17.478Z,3.92
2023-06-19T11:51:44.220Z,4.80
2023-06-19T11:54:15.503Z,4.70
2023-06-19T11:56:42.669Z,4.75
2023-06-19T11:59:09.353Z,4.45
2023-06-19T12:01:37.815Z,4.95
2023-06-19T12:04:05.369Z,5.13
2023-06-19T12:06:32.282Z,4.85
2023-06-19T12:08:59.034Z,4.90
2023-06-19T12:11:27.133Z,4.40
2023-06-19T12:13:53.868Z,4.75
2023-06-19T12:16:20.630Z,4.47
2023-06-19T12:18:47.614Z,4.85
2023-06-19T12:21:29.088Z,4.90
2023-06-19T12:24:00.297Z,5.05
2023-06-19T12:26:28.424Z,5.40
2023-06-19T12:28:55.077Z,4.33
2023-06-19T12:31:21.883Z,4.80
2023-06-19T12:33:48.706Z,5.22
2023-06-19T12:36:16.000Z,5.55
2023-06-19T12:38:42.747Z,5.28
2023-06-19T12:41:09.498Z,4.90
2023-06-19T12:43:37.507Z,5.57
2023-06-19T12:46:04.300Z,5.85
2023-06-19T12:48:31.095Z,5.75
2023-06-19T12:50:57.791Z,5.70
2023-06-19T12:53:24.521Z,5.67
2023-06-19T12:56:00.926Z,5.32
2023-06-19T12:58:29.735Z,5.00
2023-06-19T13:00:57.886Z,5.30
2023-06-19T13:03:24.693Z,5.38
2023-06-19T13:05:51.630Z,5.47
2023-06-19T13:08:18.508Z,5.00
2023-06-19T13:10:45.262Z,4.80
2023-06-19T13:13:12.522Z,5.40
2023-06-19T13:15:39.199Z,5.43
2023-06-19T13:18:07.342Z,5.20
2023-06-19T13:20:34.072Z,4.43
2023-06-19T13:23:00.750Z,4.97
2023-06-19T13:25:27.445Z,4.60
2023-06-19T13:27:54.135Z,5.13
2023-06-19T13:30:20.952Z,5.20
2023-06-19T13:32:47.790Z,4.43
2023-06-19T13:35:16.007Z,4.85
2023-06-19T13:37:42.641Z,4.90
2023-06-19T13:40:10.118Z,4.90
2023-06-19T13:42:36.749Z,5.10
2023-06-19T13:45:03.952Z,5.10
2023-06-19T13:47:30.744Z,4.88
2023-06-19T13:49:57.482Z,5.00
2023-06-19T13:52:25.559Z,5.38
2023-06-19T13:54:54.677Z,4.50
2023-06-19T13:57:22.326Z,4.68
2023-06-19T13:59:49.052Z,4.68
2023-06-19T14:02:15.863Z,4.75
2023-06-19T14:04:42.547Z,4.90
2023-06-19T14:07:09.399Z,4.93
2023-06-19T14:09:37.636Z,4.80
2023-06-19T14:12:04.937Z,4.35
2023-06-19T14:14:31.796Z,4.50
2023-06-19T14:16:58.597Z,4.78
2023-06-19T14:19:25.346Z,4.60
2023-06-19T14:21:52.606Z,4.80
2023-06-19T14:24:19.381Z,4.95
2023-06-19T14:26:47.392Z,4.68
2023-06-19T14:29:14.074Z,4.70
2023-06-19T14:31:40.728Z,4.90
2023-06-19T14:34:07.642Z,4.13
2023-06-19T14:36:34.238Z,4.75
2023-06-19T14:39:01.000Z,4.93
2023-06-19T14:41:27.690Z,5.07
2023-06-19T14:43:55.789Z,4.47
2023-06-19T14:46:37.302Z,4.47
2023-06-19T14:49:05.550Z,4.80
2023-06-19T14:51:32.263Z,4.82
2023-06-19T14:53:58.965Z,4.80
2023-06-19T14:56:25.674Z,4.67
2023-06-19T14:58:52.386Z,5.03
2023-06-19T15:01:20.551Z,5.40
2023-06-19T15:03:47.391Z,5.00
2023-06-19T15:06:14.225Z,5.03
2023-06-19T15:08:40.866Z,4.97
2023-06-19T15:11:07.492Z,5.13
2023-06-19T15:13:34.501Z,5.07
2023-06-19T15:16:01.228Z,4.90
2023-06-19T15:18:29.520Z,5.20
2023-06-19T15:20:56.262Z,5.53
2023-06-19T15:23:22.971Z,4.93
2023-06-19T15:25:49.663Z,4.90
2023-06-19T15:28:16.358Z,5.53
2023-06-19T15:30:43.016Z,4.97
2023-06-19T15:33:09.778Z,5.50
2023-06-19T15:35:37.812Z,5.10
2023-06-19T15:38:04.500Z,5.55
2023-06-19T15:40:31.433Z,4.95
2023-06-19T15:42:58.194Z,5.30
2023-06-19T15:45:24.934Z,5.50
2023-06-19T15:47:51.846Z,4.80
2023-06-19T15:50:18.592Z,4.90
2023-06-19T15:52:46.632Z,4.50
2023-06-19T15:55:13.765Z,4.68
2023-06-19T15:57:40.492Z,4.50
2023-06-19T16:00:08.291Z,5.30
2023-06-19T16:02:35.096Z,5.28
2023-06-19T16:05:01.866Z,4.88
2023-06-19T16:07:28.543Z,5.18
2023-06-19T16:09:56.527Z,5.13
2023-06-19T16:12:23.335Z,5.20
2023-06-19T16:14:50.053Z,4.93
2023-06-19T16:17:16.740Z,4.75
2023-06-19T16:19:43.489Z,5.35
2023-06-19T16:22:10.113Z,5.00
2023-06-19T16:24:37.018Z,4.70
2023-06-19T16:27:05.687Z,5.40
2023-06-19T16:29:32.420Z,4.93
2023-06-19T16:32:09.089Z,5.05
2023-06-19T16:34:37.578Z,5.50
2023-06-19T16:37:04.830Z,5.00
2023-06-19T16:39:31.484Z,5.72
2023-06-19T16:41:58.279Z,4.70
2023-06-19T16:44:26.377Z,4.43
2023-06-19T16:46:53.120Z,4.37
2023-06-19T16:49:19.853Z,4.53
2023-06-19T16:51:48.046Z,4.43
2023-06-19T16:54:14.877Z,4.40
2023-06-19T16:56:41.681Z,4.75
2023-06-19T16:59:08.399Z,4.70
2023-06-19T17:01:37.252Z,4.40
2023-06-19T17:04:04.214Z,4.70
2023-06-19T17:06:31.036Z,5.00
2023-06-19T17:08:58.023Z,4.63
2023-06-19T17:11:24.756Z,4.50
2023-06-19T17:13:51.420Z,4.07
2023-06-19T17:16:18.137Z,4.35
2023-06-19T17:18:46.146Z,3.80
2023-06-19T17:21:12.941Z,4.53
2023-06-19T17:23:39.598Z,3.80
2023-06-19T17:26:06.352Z,4.65
2023-06-19T17:28:33.050Z,4.25
2023-06-19T17:30:59.730Z,4.20
2023-06-19T17:33:26.475Z,4.28
2023-06-19T17:35:54.498Z,3.83
2023-06-19T17:38:21.177Z,4.05
2023-06-19T17:40:47.859Z,4.30
2023-06-19T17:43:14.519Z,4.10
2023-06-19T17:45:41.168Z,4.05
2023-06-19T17:48:07.833Z,4.27
2023-06-19T17:50:34.604Z,3.90
2023-06-19T17:53:02.670Z,4.25
2023-06-19T17:55:29.327Z,4.20
2023-06-19T17:57:56.042Z,4.20
2023-06-19T18:00:23.044Z,4.00
2023-06-19T18:02:49.966Z,3.88
2023-06-19T18:05:16.960Z,3.97
2023-06-19T18:07:43.598Z,3.83
2023-06-19T18:10:13.100Z,4.13
2023-06-19T18:12:41.242Z,4.33
2023-06-19T18:15:08.694Z,3.50
2023-06-19T18:17:35.338Z,4.10
2023-06-19T18:20:02.146Z,3.95
2023-06-19T18:22:29.093Z,3.90
2023-06-19T18:24:55.816Z,4.27
2023-06-19T18:27:23.988Z,3.85
2023-06-19T18:29:50.704Z,3.92
2023-06-19T18:32:17.565Z,4.32
2023-06-19T18:34:44.271Z,4.22
2023-06-19T18:37:11.060Z,4.00
2023-06-19T18:39:37.876Z,3.95
2023-06-19T18:42:05.263Z,4.10
2023-06-19T18:44:33.340Z,4.10
2023-06-19T18:46:59.981Z,4.55
2023-06-19T18:49:28.310Z,4.50
2023-06-19T18:51:56.298Z,4.18
2023-06-19T18:54:22.998Z,4.30
2023-06-19T18:56:49.659Z,4.20
2023-06-19T18:59:16.493Z,4.60
2023-06-19T19:01:44.577Z,4.50
2023-06-19T19:04:11.318Z,4.10
2023-06-19T19:06:37.995Z,4.40
2023-06-19T19:09:04.692Z,4.20
2023-06-19T19:11:32.232Z,4.47
2023-06-19T19:13:58.881Z,4.60
2023-06-19T19:16:25.575Z,4.80
2023-06-19T19:18:53.918Z,4.68
2023-06-19T19:21:20.900Z,4.40
2023-06-19T19:23:47.592Z,4.40
2023-06-19T19:26:14.274Z,4.50
2023-06-19T19:28:40.925Z,4.53
2023-06-19T19:31:07.605Z,4.40
2023-06-19T19:33:35.097Z,4.32
2023-06-19T19:36:03.593Z,4.63
2023-06-19T19:38:30.264Z,4.60
2023-06-19T19:40:57.000Z,4.82
2023-06-19T19:43:23.662Z,4.68
2023-06-19T19:45:50.403Z,4.40
2023-06-19T19:48:17.081Z,4.90
2023-06-19T19:50:43.742Z,4.37
2023-06-19T19:53:11.867Z,4.30
2023-06-19T19:55:38.585Z,5.10
2023-06-19T19:58:05.236Z,5.05
2023-06-19T20:00:31.848Z,4.88
2023-06-19T20:02:58.630Z,4.83
2023-06-19T20:05:25.499Z,4.80
2023-06-19T20:07:52.271Z,5.05
2023-06-19T20:10:20.357Z,5.57
2023-06-19T20:12:47.000Z,5.40
2023-06-19T20:15:13.711Z,5.60
2023-06-19T20:17:40.539Z,5.40
2023-06-19T20:20:08.016Z,5.50
2023-06-19T20:22:34.703Z,5.60
2023-06-19T20:25:01.641Z,5.70
2023-06-19T20:27:29.720Z,5.60
2023-06-19T20:29:56.384Z,5.70
2023-06-19T20:32:23.413Z,5.85
2023-06-19T20:34:50.171Z,5.13
2023-06-19T20:37:16.875Z,5.38
2023-06-19T20:39:43.560Z,5.90
2023-06-19T20:42:10.293Z,5.00
2023-06-19T20:44:38.624Z,4.88
2023-06-19T20:47:06.027Z,4.72
2023-06-19T20:49:32.783Z,5.30
2023-06-19T20:51:59.449Z,5.07
2023-06-19T20:54:26.059Z,5.20
2023-06-19T20:56:52.670Z,5.15
2023-06-19T20:59:19.345Z,5.15
2023-06-19T21:01:50.612Z,4.57
2023-06-19T21:04:17.323Z,5.40
2023-06-19T21:06:43.994Z,4.85
2023-06-19T21:09:10.716Z,5.40
2023-06-19T21:11:37.377Z,5.35
2023-06-19T21:14:04.067Z,4.60
2023-06-19T21:16:30.895Z,4.83
2023-06-19T21:18:59.002Z,5.20
2023-06-19T21:21:25.701Z,4.88
2023-06-19T21:23:52.525Z,5.30
2023-06-19T21:26:19.238Z,5.13
2023-06-19T21:28:45.932Z,5.40
2023-06-19T21:31:12.607Z,5.32
2023-06-19T21:33:39.495Z,5.18
2023-06-19T21:36:08.410Z,5.22
2023-06-19T21:38:35.185Z,5.35
2023-06-19T21:41:02.112Z,5.10
2023-06-19T21:43:28.959Z,5.00
2023-06-19T21:45:55.918Z,5.38
2023-06-19T21:48:22.598Z,5.43
2023-06-19T21:50:49.335Z,5.60
2023-06-19T21:53:17.414Z,5.13
2023-06-19T21:55:44.234Z,5.72
2023-06-19T21:58:10.968Z,5.40
2023-06-19T22:00:37.762Z,5.43
2023-06-19T22:03:04.825Z,5.40
2023-06-19T22:05:31.581Z,5.67
2023-06-19T22:07:58.278Z,5.40
2023-06-19T22:10:26.555Z,5.28
2023-06-19T22:12:53.470Z,5.55
2023-06-19T22:15:20.207Z,5.18
2023-06-19T22:17:46.980Z,5.33
2023-06-19T22:20:14.310Z,4.85
2023-06-19T22:22:41.076Z,5.25
2023-06-19T22:25:08.266Z,6.15
2023-06-19T22:27:36.617Z,5.32
2023-06-19T22:30:03.724Z,4.97
2023-06-19T22:32:30.442Z,5.35
2023-06-19T22:34:57.120Z,6.15
2023-06-19T22:37:24.236Z,5.05
2023-06-19T22:39:50.896Z,5.50
2023-06-19T22:42:17.532Z,5.67
2023-06-19T22:44:45.654Z,5.20
2023-06-19T22:47:12.323Z,5.63
2023-06-19T22:49:39.015Z,5.18
2023-06-19T22:52:06.104Z,5.75
2023-06-19T22:54:32.777Z,5.47
2023-06-19T22:56:59.439Z,5.55
2023-06-19T22:59:26.269Z,5.57
2023-06-19T23:01:54.291Z,5.45
2023-06-19T23:04:20.897Z,5.57
2023-06-19T23:06:48.116Z,5.37
2023-06-19T23:09:14.839Z,5.97
2023-06-19T23:11:41.852Z,5.68
2023-06-19T23:14:08.875Z,5.50
2023-06-19T23:16:35.654Z,5.75
2023-06-19T23:19:03.739Z,5.77
2023-06-19T23:21:30.416Z,6.47
2023-06-19T23:23:57.981Z,5.80
2023-06-19T23:26:24.934Z,5.50
2023-06-19T23:28:51.694Z,5.78
2023-06-19T23:31:18.684Z,5.43
2023-06-19T23:33:45.354Z,5.70
2023-06-19T23:36:13.349Z,5.60
2023-06-19T23:38:40.056Z,5.72
2023-06-19T23:41:07.065Z,5.47
2023-06-19T23:43:33.664Z,5.00
2023-06-19T23:46:00.308Z,5.60
2023-06-19T23:48:26.925Z,5.90
2023-06-19T23:50:53.568Z,6.30
2023-06-19T23:53:21.645Z,5.85
2023-06-19T23:55:48.505Z,5.67
2023-06-19T23:58:15.131Z,5.80
